»·PEaware :: SWA467 KSLC-KLAS

SWA467 :: KSLC-KLAS

FLIGHT INFORMATION

Flight Status: Arrived
Operator:
Southwest Airlines
More flights by this operator :: More flights under this callsign
Pilot: Ben L. (6391)
Aircraft: BOEING 737-200
(B732)
More flights by this aircraft type
Origin: KSLC Salt Lake City Intl
United States
Destination: KLAS McCarran Intl
United States
More flights between these airports :: More routes between these airports
Route: +SEVYR2 MLF LUXOR2
File this flight plan on PilotEdge
Remarks:
Altitude:
(Current/Filed)
32,000ft
Speed:
(Current/Filed)
450kts
Departed: 25-Jan-18 07:02 PM
Arrived: 25-Jan-18 08:11 PM
Distance/Time
Traveled:
319nm/1:09
Distance/Time
To Go:
Arrived

Flight Plot

Page will automatically refresh every two minutes.

Flight plan parsing failed; only flown route is shown


Map Options




Map Legend


Flown Route
Filed Route
Departure Airport
Arrival Airport
Navaid (VOR, NDB)
Fix

Horizontal Profiles

Position Reports

Time Latitude Longitude Heading Altitude Ground
Speed
25-Jan-18 18:30 40.788838 -111.977839 258 4236ft 0kts
25-Jan-18 18:31 40.788838 -111.977839 258 4236ft 0kts
25-Jan-18 18:32 40.788838 -111.977839 258 4236ft 0kts
25-Jan-18 18:33 40.788838 -111.977839 258 4236ft 0kts
25-Jan-18 18:34 40.788838 -111.977839 258 4236ft 0kts
25-Jan-18 18:35 40.788838 -111.977839 258 4236ft 0kts
25-Jan-18 18:36 40.788838 -111.977839 258 4236ft 0kts
25-Jan-18 18:37 40.788838 -111.977839 258 4236ft 0kts
25-Jan-18 18:38 40.788838 -111.977839 258 4236ft 0kts
25-Jan-18 18:39 40.788838 -111.977839 258 4236ft 0kts
25-Jan-18 18:40 40.788838 -111.977839 258 4236ft 0kts
25-Jan-18 18:41 40.788838 -111.977839 258 4236ft 0kts
25-Jan-18 18:42 40.788838 -111.977839 258 4236ft 0kts
25-Jan-18 18:43 40.788838 -111.977839 258 4236ft 0kts
25-Jan-18 18:44 40.788838 -111.977839 258 4236ft 0kts
25-Jan-18 18:45 40.788838 -111.977839 258 4236ft 0kts
25-Jan-18 18:46 40.788838 -111.977839 258 4236ft 0kts
25-Jan-18 18:47 40.788838 -111.977839 258 4236ft 0kts
25-Jan-18 18:48 40.788838 -111.977839 258 4236ft 0kts
25-Jan-18 18:49 40.788838 -111.977839 258 4236ft 0kts
25-Jan-18 18:50 40.788838 -111.977839 258 4236ft 0kts
25-Jan-18 18:51 40.788838 -111.977839 258 4236ft 0kts
25-Jan-18 18:52 40.788838 -111.977839 258 4236ft 0kts
25-Jan-18 18:53 40.788838 -111.977839 258 4236ft 0kts
25-Jan-18 18:54 40.788838 -111.977839 258 4236ft 0kts
25-Jan-18 18:55 40.788838 -111.977839 258 4236ft 0kts
25-Jan-18 18:56 40.788838 -111.977839 258 4236ft 0kts
25-Jan-18 18:57 40.788725 -111.977612 2 4236ft 1kts
25-Jan-18 18:58 40.788358 -111.977578 353 4236ft 0kts
25-Jan-18 18:59 40.788358 -111.977578 353 4236ft 0kts
25-Jan-18 19:00 40.788358 -111.977578 353 4236ft 0kts
25-Jan-18 19:01 40.788358 -111.977578 353 4236ft 0kts
25-Jan-18 19:02 40.787841 -111.976836 181 4236ft 17kts
25-Jan-18 19:03 40.780655 -111.975987 174 4236ft 30kts
25-Jan-18 19:04 40.776611 -111.975651 175 4236ft 0kts
25-Jan-18 19:05 40.776611 -111.975651 175 4236ft 0kts
25-Jan-18 19:06 40.776169 -111.975603 173 4236ft 4kts
25-Jan-18 19:07 40.774646 -111.974699 138 4236ft 4kts
25-Jan-18 19:08 40.777519 -111.973452 356 4236ft 55kts
25-Jan-18 19:09 40.815399 -111.983477 324 5679ft 178kts
25-Jan-18 19:10 40.826381 -112.060494 273 8217ft 250kts
25-Jan-18 19:11 40.828229 -112.151300 275 11454ft 258kts
25-Jan-18 19:12 40.830546 -112.247115 275 13271ft 306kts
25-Jan-18 19:13 40.833832 -112.362423 275 15873ft 319kts
25-Jan-18 19:14 40.837211 -112.475746 275 18249ft 323kts
25-Jan-18 19:15 40.841480 -112.593517 275 20369ft 328kts
25-Jan-18 19:16 40.846733 -112.710723 273 22193ft 332kts
25-Jan-18 19:17 40.788218 -112.797893 196 23761ft 387kts
25-Jan-18 19:18 40.679900 -112.768125 175 25147ft 414kts
25-Jan-18 19:19 40.570816 -112.768530 187 26408ft 404kts
25-Jan-18 19:20 40.461217 -112.773519 192 27574ft 400kts
25-Jan-18 19:21 40.351854 -112.784973 194 28617ft 401kts
25-Jan-18 19:22 40.242952 -112.797591 194 29511ft 403kts
25-Jan-18 19:23 40.133081 -112.810561 194 30472ft 404kts
25-Jan-18 19:24 40.023642 -112.823416 194 31284ft 406kts
25-Jan-18 19:25 39.912580 -112.836433 193 31969ft 408kts
25-Jan-18 19:26 39.806156 -112.848667 193 32011ft 417kts
25-Jan-18 19:27 39.693101 -112.861798 193 32013ft 419kts
25-Jan-18 19:28 39.578190 -112.875104 193 32013ft 423kts
25-Jan-18 19:29 39.462566 -112.888459 193 32011ft 426kts
25-Jan-18 19:30 39.346639 -112.901771 193 32010ft 428kts
25-Jan-18 19:31 39.230311 -112.915102 193 32008ft 430kts
25-Jan-18 19:32 39.112003 -112.928635 193 31988ft 432kts
25-Jan-18 19:33 38.994095 -112.942002 193 31954ft 434kts
25-Jan-18 19:34 38.877958 -112.955022 196 31932ft 431kts
25-Jan-18 19:35 38.763418 -112.967957 196 31925ft 424kts
25-Jan-18 19:36 38.648542 -112.980930 196 31925ft 419kts
25-Jan-18 19:37 38.533911 -112.993822 197 31925ft 415kts
25-Jan-18 19:38 38.421313 -113.006433 197 31927ft 412kts
25-Jan-18 19:39 38.309966 -113.022237 208 31917ft 396kts
25-Jan-18 19:40 38.208263 -113.069142 211 31925ft 394kts
25-Jan-18 19:41 38.112755 -113.127886 230 31915ft 372kts
25-Jan-18 19:42 38.031052 -113.208316 220 31920ft 384kts
25-Jan-18 19:43 37.938115 -113.272671 217 31917ft 390kts
25-Jan-18 19:44 37.845115 -113.330739 216 31922ft 393kts
25-Jan-18 19:45 37.748219 -113.390065 215 31923ft 394kts
25-Jan-18 19:46 37.651465 -113.449082 216 31919ft 394kts
25-Jan-18 19:47 37.553698 -113.508580 215 31916ft 394kts
25-Jan-18 19:48 37.455991 -113.567880 215 31915ft 394kts
25-Jan-18 19:49 37.357883 -113.627220 215 31912ft 393kts
25-Jan-18 19:50 37.266407 -113.682681 215 31932ft 394kts
25-Jan-18 19:51 37.172380 -113.739030 216 31109ft 374kts
25-Jan-18 19:52 37.080217 -113.794305 215 28353ft 370kts
25-Jan-18 19:53 36.990436 -113.847992 213 26140ft 353kts
25-Jan-18 19:54 36.905282 -113.898728 212 23923ft 339kts
25-Jan-18 19:55 36.826832 -113.944848 211 21812ft 330kts
25-Jan-18 19:56 36.746359 -113.992447 210 19614ft 321kts
25-Jan-18 19:57 36.667246 -114.039247 209 17432ft 313kts
25-Jan-18 19:58 36.589843 -114.084937 208 15297ft 306kts
25-Jan-18 19:59 36.537632 -114.161226 240 13172ft 298kts
25-Jan-18 20:00 36.498855 -114.248864 239 11975ft 268kts
25-Jan-18 20:01 36.463486 -114.327255 239 11988ft 265kts
25-Jan-18 20:02 36.426852 -114.407671 238 11974ft 267kts
25-Jan-18 20:03 36.389660 -114.485725 224 11962ft 259kts
25-Jan-18 20:04 36.331976 -114.531701 211 11707ft 235kts
25-Jan-18 20:05 36.274645 -114.571296 211 10278ft 236kts
25-Jan-18 20:06 36.217592 -114.610651 211 8952ft 235kts
25-Jan-18 20:07 36.164645 -114.653389 230 7662ft 231kts
25-Jan-18 20:08 36.124491 -114.713742 231 6452ft 229kts
25-Jan-18 20:09 36.087554 -114.776814 237 5220ft 230kts
25-Jan-18 20:10 36.073120 -114.843796 269 4801ft 179kts
25-Jan-18 20:11 36.075162 -114.902643 258 3991ft 165kts
25-Jan-18 20:12 36.074220 -114.956346 265 3535ft 143kts
25-Jan-18 20:13 36.073860 -115.005638 268 3467ft 145kts
25-Jan-18 20:14 36.073225 -115.055054 267 3103ft 144kts
25-Jan-18 20:15 36.073821 -115.101129 266 2541ft 126kts
25-Jan-18 20:16 36.073647 -115.141368 270 2150ft 80kts
25-Jan-18 20:17 36.076139 -115.151848 332 2150ft 20kts
25-Jan-18 20:18 36.077654 -115.152627 9 2150ft 10kts
25-Jan-18 20:19 36.081274 -115.149502 78 2150ft 18kts

Navigation Log

Ident Type
Flight plan parsing failed, navigation log unavailable